createdAt,value
2023-02-23T00:02:08.810Z,57.25
2023-02-23T00:05:14.529Z,57.44
2023-02-23T00:08:18.614Z,57.95
2023-02-23T00:11:25.472Z,58.15
2023-02-23T00:14:31.355Z,58.13
2023-02-23T00:17:38.426Z,57.92
2023-02-23T00:20:45.885Z,57.80
2023-02-23T00:23:51.658Z,57.91
2023-02-23T00:26:58.114Z,57.92
2023-02-23T00:30:03.778Z,58.04
2023-02-23T00:33:08.572Z,57.45
2023-02-23T00:36:18.578Z,57.83
2023-02-23T00:39:31.767Z,58.23
2023-02-23T00:42:38.962Z,58.51
2023-02-23T00:45:43.364Z,58.56
2023-02-23T00:48:49.333Z,58.43
2023-02-23T00:51:54.404Z,58.31
2023-02-23T00:55:00.184Z,58.46
2023-02-23T00:58:05.538Z,58.37
2023-02-23T01:01:12.648Z,58.32
2023-02-23T01:04:17.061Z,58.36
2023-02-23T01:07:21.974Z,58.34
2023-02-23T01:10:29.756Z,58.24
2023-02-23T01:13:35.407Z,58.28
2023-02-23T01:16:44.905Z,58.36
2023-02-23T01:19:49.063Z,58.43
2023-02-23T01:22:54.400Z,58.50
2023-02-23T01:25:59.748Z,58.36
2023-02-23T01:29:07.514Z,58.25
2023-02-23T01:32:11.828Z,58.70
2023-02-23T01:35:12.859Z,58.71
2023-02-23T01:38:03.544Z,58.54
2023-02-23T01:41:09.487Z,58.50
2023-02-23T01:44:19.515Z,58.51
2023-02-23T01:47:28.730Z,58.77
2023-02-23T01:50:34.688Z,58.83
2023-02-23T01:53:43.568Z,58.51
2023-02-23T01:56:50.537Z,58.35
2023-02-23T02:00:02.862Z,58.83
2023-02-23T02:03:09.870Z,59.07
2023-02-23T02:06:16.928Z,59.22
2023-02-23T02:09:24.467Z,59.32
2023-02-23T02:12:30.131Z,59.57
2023-02-23T02:15:36.746Z,59.72
2023-02-23T02:18:45.136Z,60.17
2023-02-23T02:22:21.465Z,60.50
2023-02-23T02:25:47.883Z,60.73
2023-02-23T02:29:01.263Z,60.69
2023-02-23T02:32:14.114Z,60.64
2023-02-23T02:35:28.003Z,60.62
2023-02-23T02:38:41.893Z,60.68
2023-02-23T02:42:01.047Z,60.50
2023-02-23T02:45:14.641Z,60.59
2023-02-23T02:48:22.646Z,60.30
2023-02-23T02:51:36.301Z,60.80
2023-02-23T02:54:48.081Z,60.04
2023-02-23T02:57:52.991Z,59.74
2023-02-23T03:01:18.721Z,60.23
2023-02-23T03:04:49.249Z,60.43
2023-02-23T03:08:41.636Z,61.23
2023-02-23T03:12:10.973Z,61.11
2023-02-23T03:15:52.234Z,61.51
2023-02-23T03:19:25.237Z,61.76
2023-02-23T03:22:59.549Z,62.21
2023-02-23T03:26:32.865Z,62.33
2023-02-23T03:30:10.384Z,62.43
2023-02-23T03:33:34.846Z,62.53
2023-02-23T03:36:57.840Z,62.64
2023-02-23T03:40:23.317Z,62.77
2023-02-23T03:43:34.154Z,63.22
2023-02-23T03:46:57.136Z,63.67
2023-02-23T03:50:19.085Z,63.82
2023-02-23T03:53:41.966Z,63.83
2023-02-23T03:57:06.632Z,63.81
2023-02-23T04:00:24.973Z,63.74
2023-02-23T04:03:42.856Z,64.13
2023-02-23T04:07:06.821Z,64.50
2023-02-23T04:10:29.206Z,64.10
2023-02-23T04:13:36.214Z,63.74
2023-02-23T04:16:42.870Z,63.95
2023-02-23T04:19:47.297Z,63.72
2023-02-23T04:22:52.677Z,64.04
2023-02-23T04:25:57.003Z,64.05
2023-02-23T04:29:00.737Z,64.13
2023-02-23T04:32:04.516Z,64.12
2023-02-23T04:35:08.399Z,64.04
2023-02-23T04:38:12.977Z,63.43
2023-02-23T04:41:18.893Z,62.72
2023-02-23T04:44:24.614Z,61.68
2023-02-23T04:47:30.205Z,60.90
2023-02-23T04:50:35.156Z,60.24
2023-02-23T04:53:39.482Z,59.28
2023-02-23T04:56:44.229Z,58.93
2023-02-23T04:59:50.007Z,58.39
2023-02-23T05:02:50.573Z,57.94
2023-02-23T05:05:54.473Z,57.50
2023-02-23T05:08:58.657Z,57.23
2023-02-23T05:12:04.046Z,56.67
2023-02-23T05:15:07.716Z,56.06
2023-02-23T05:18:12.307Z,55.90
2023-02-23T05:21:21.603Z,55.92
2023-02-23T05:24:25.914Z,56.20
2023-02-23T05:27:30.453Z,56.36
2023-02-23T05:30:35.072Z,56.89
2023-02-23T05:33:38.650Z,57.11
2023-02-23T05:36:43.532Z,57.26
2023-02-23T05:39:47.019Z,57.51
2023-02-23T05:42:52.279Z,58.09
2023-02-23T05:45:51.318Z,58.57
2023-02-23T05:48:56.947Z,59.42
2023-02-23T05:52:01.828Z,59.74
2023-02-23T05:55:07.020Z,59.54
2023-02-23T05:58:11.321Z,58.91
2023-02-23T06:01:15.605Z,58.45
2023-02-23T06:04:13.821Z,57.13
2023-02-23T06:07:06.336Z,56.70
2023-02-23T06:10:11.933Z,56.45
2023-02-23T06:13:16.660Z,56.34
2023-02-23T06:16:22.675Z,55.86
2023-02-23T06:19:26.987Z,55.82
2023-02-23T06:22:31.599Z,55.65
2023-02-23T06:25:35.022Z,55.52
2023-02-23T06:28:40.294Z,55.11
2023-02-23T06:31:44.451Z,54.93
2023-02-23T06:34:48.764Z,54.98
2023-02-23T06:37:55.497Z,54.21
2023-02-23T06:41:00.808Z,53.80
2023-02-23T06:44:04.582Z,53.76
2023-02-23T06:47:01.492Z,52.94
2023-02-23T06:50:06.786Z,52.23
2023-02-23T06:53:12.294Z,51.44
2023-02-23T06:56:18.396Z,51.64
2023-02-23T06:59:22.709Z,51.76
2023-02-23T07:02:26.653Z,51.28
2023-02-23T07:05:31.255Z,50.95
2023-02-23T07:08:36.434Z,51.04
2023-02-23T07:11:40.526Z,50.21
2023-02-23T07:14:46.092Z,50.66
2023-02-23T07:17:53.173Z,50.27
2023-02-23T07:21:00.164Z,50.54
2023-02-23T07:24:03.406Z,50.83
2023-02-23T07:27:07.661Z,51.27
2023-02-23T07:30:12.504Z,50.26
2023-02-23T07:33:17.505Z,50.61
2023-02-23T07:36:23.362Z,50.35
2023-02-23T07:39:26.640Z,49.45
2023-02-23T07:42:30.792Z,49.29
2023-02-23T07:45:36.295Z,49.45
2023-02-23T07:48:41.025Z,49.53
2023-02-23T07:51:45.855Z,49.73
2023-02-23T07:54:51.222Z,49.43
2023-02-23T07:57:55.882Z,49.56
2023-02-23T08:01:00.774Z,49.53
2023-02-23T08:04:05.573Z,49.93
2023-02-23T08:07:11.097Z,49.64
2023-02-23T08:10:15.047Z,48.78
2023-02-23T08:13:20.353Z,49.72
2023-02-23T08:16:24.999Z,48.65
2023-02-23T08:19:30.031Z,48.76
2023-02-23T08:22:48.309Z,48.24
2023-02-23T08:25:40.044Z,48.21
2023-02-23T08:28:44.908Z,48.96
2023-02-23T08:31:49.889Z,49.16
2023-02-23T08:34:57.853Z,49.21
2023-02-23T08:38:04.001Z,49.55
2023-02-23T08:41:08.912Z,48.89
2023-02-23T08:44:13.321Z,49.01
2023-02-23T08:47:17.609Z,48.61
2023-02-23T08:50:24.769Z,48.26
2023-02-23T08:53:32.115Z,47.45
2023-02-23T08:56:38.976Z,47.70
2023-02-23T08:59:44.192Z,47.18
2023-02-23T09:02:50.266Z,48.09
2023-02-23T09:05:54.629Z,48.82
2023-02-23T09:09:00.559Z,48.49
2023-02-23T09:12:05.375Z,48.24
2023-02-23T09:15:08.836Z,47.14
2023-02-23T09:18:15.992Z,47.59
2023-02-23T09:21:24.264Z,47.34
2023-02-23T09:24:28.583Z,47.92
2023-02-23T09:27:33.983Z,48.14
2023-02-23T09:30:39.936Z,47.12
2023-02-23T09:33:44.198Z,47.18
2023-02-23T09:36:48.923Z,48.26
2023-02-23T09:39:57.932Z,47.54
2023-02-23T09:43:24.688Z,47.64
2023-02-23T09:46:38.166Z,47.59
2023-02-23T09:49:46.201Z,47.86
2023-02-23T09:52:57.499Z,47.91
2023-02-23T09:56:01.802Z,47.42
2023-02-23T09:59:09.909Z,47.09
2023-02-23T10:02:19.531Z,47.83
2023-02-23T10:05:25.172Z,47.67
2023-02-23T10:08:36.475Z,47.32
2023-02-23T10:11:41.956Z,46.66
2023-02-23T10:15:07.984Z,46.57
2023-02-23T10:18:22.117Z,47.28
2023-02-23T10:21:32.144Z,47.52
2023-02-23T10:24:38.902Z,46.75
2023-02-23T10:27:47.575Z,46.57
2023-02-23T10:30:52.638Z,47.06
2023-02-23T10:33:57.241Z,46.15
2023-02-23T10:37:08.384Z,46.06
2023-02-23T10:40:12.923Z,46.37
2023-02-23T10:43:17.863Z,46.82
2023-02-23T10:46:22.232Z,46.53
2023-02-23T10:49:30.430Z,46.19
2023-02-23T10:52:48.235Z,47.12
2023-02-23T10:55:52.640Z,47.66
2023-02-23T10:59:05.637Z,47.22
2023-02-23T11:02:10.634Z,46.97
2023-02-23T11:05:17.676Z,45.96
2023-02-23T11:08:35.675Z,45.89
2023-02-23T11:11:40.769Z,46.11
2023-02-23T11:14:45.934Z,45.97
2023-02-23T11:17:53.234Z,46.53
2023-02-23T11:20:58.139Z,46.24
2023-02-23T11:24:03.920Z,45.38
2023-02-23T11:27:10.704Z,46.14
2023-02-23T11:30:18.258Z,45.64
2023-02-23T11:33:28.094Z,45.76
2023-02-23T11:36:43.304Z,45.99
2023-02-23T11:39:48.440Z,46.25
2023-02-23T11:42:55.777Z,45.76
2023-02-23T11:46:03.777Z,45.74
2023-02-23T11:49:12.666Z,44.86
2023-02-23T11:52:17.441Z,45.35
2023-02-23T11:55:21.560Z,45.30
2023-02-23T11:58:37.998Z,46.39
2023-02-23T12:01:56.317Z,45.30
2023-02-23T12:05:01.623Z,45.58
2023-02-23T12:08:18.342Z,45.05
2023-02-23T12:11:29.319Z,45.81
2023-02-23T12:14:40.742Z,45.06
2023-02-23T12:17:52.712Z,45.74
2023-02-23T12:21:01.063Z,44.84
2023-02-23T12:24:05.032Z,44.59
2023-02-23T12:27:13.122Z,44.59
2023-02-23T12:30:27.654Z,45.14
2023-02-23T12:33:44.788Z,44.72
2023-02-23T12:37:00.219Z,44.46
2023-02-23T12:40:06.259Z,44.96
2023-02-23T12:43:22.721Z,43.90
2023-02-23T12:46:31.949Z,44.14
2023-02-23T12:49:40.912Z,44.29
2023-02-23T12:52:47.959Z,45.07
2023-02-23T12:55:58.872Z,45.42
2023-02-23T12:59:18.061Z,45.03
2023-02-23T13:02:35.891Z,44.06
2023-02-23T13:05:43.778Z,44.97
2023-02-23T13:08:57.322Z,44.48
2023-02-23T13:12:12.428Z,44.51
2023-02-23T13:15:25.455Z,44.57
2023-02-23T13:18:57.771Z,44.76
2023-02-23T13:22:11.835Z,44.91
2023-02-23T13:25:18.341Z,44.69
2023-02-23T13:28:29.286Z,44.55
2023-02-23T13:31:42.032Z,44.19
2023-02-23T13:34:52.284Z,44.29
2023-02-23T13:37:59.603Z,44.13
2023-02-23T13:41:13.939Z,44.34
2023-02-23T13:44:25.013Z,44.49
2023-02-23T13:47:41.865Z,43.96
2023-02-23T13:50:52.568Z,44.27
2023-02-23T13:54:02.321Z,45.32
2023-02-23T13:57:13.483Z,44.30
2023-02-23T14:00:18.635Z,44.35
2023-02-23T14:03:36.756Z,44.48
2023-02-23T14:06:43.652Z,44.78
2023-02-23T14:10:03.907Z,45.00
2023-02-23T14:13:30.881Z,45.03
2023-02-23T14:16:35.733Z,45.16
2023-02-23T14:19:51.613Z,44.83
2023-02-23T14:23:33.781Z,45.49
2023-02-23T14:26:48.074Z,46.34
2023-02-23T14:30:01.389Z,45.82
2023-02-23T14:33:16.674Z,45.85
2023-02-23T14:36:10.899Z,46.02
2023-02-23T14:39:17.778Z,46.18
2023-02-23T14:42:22.404Z,46.39
2023-02-23T14:45:39.987Z,46.81
2023-02-23T14:48:46.618Z,47.02
2023-02-23T14:51:55.410Z,46.71
2023-02-23T14:55:01.432Z,46.79
2023-02-23T14:58:05.869Z,46.67
2023-02-23T15:01:11.728Z,46.70
2023-02-23T15:04:27.733Z,46.86
2023-02-23T15:07:41.755Z,47.05
2023-02-23T15:10:51.172Z,47.06
2023-02-23T15:13:58.078Z,47.45
2023-02-23T15:17:03.307Z,47.92
2023-02-23T15:20:16.961Z,48.17
2023-02-23T15:23:19.456Z,48.29
2023-02-23T15:26:43.578Z,48.38
2023-02-23T15:29:41.601Z,48.59
2023-02-23T15:32:46.853Z,48.74
2023-02-23T15:35:54.451Z,48.72
2023-02-23T15:39:00.370Z,48.83
2023-02-23T15:42:05.682Z,48.89
2023-02-23T15:45:14.992Z,49.32
2023-02-23T15:48:29.933Z,49.80
2023-02-23T15:51:58.857Z,49.91
2023-02-23T15:55:07.949Z,50.24
2023-02-23T15:58:03.250Z,50.62
2023-02-23T16:01:09.142Z,50.82
2023-02-23T16:04:17.294Z,51.09
2023-02-23T16:07:24.175Z,51.18
2023-02-23T16:10:39.068Z,51.13
2023-02-23T16:13:42.707Z,51.29
2023-02-23T16:17:01.437Z,51.97
2023-02-23T16:19:56.772Z,52.33
2023-02-23T16:23:02.475Z,52.60
2023-02-23T16:26:12.496Z,52.96
2023-02-23T16:29:18.289Z,53.43
2023-02-23T16:32:35.047Z,53.84
2023-02-23T16:35:39.987Z,54.42
2023-02-23T16:38:55.895Z,54.74
2023-02-23T16:42:01.241Z,55.00
2023-02-23T16:45:07.377Z,55.23
2023-02-23T16:48:14.370Z,55.63
2023-02-23T16:51:31.011Z,55.81
2023-02-23T16:54:34.253Z,56.00
2023-02-23T16:57:39.617Z,56.05
2023-02-23T17:00:45.790Z,56.18
2023-02-23T17:03:53.306Z,56.24
2023-02-23T17:07:01.233Z,56.26
2023-02-23T17:10:06.933Z,56.09
2023-02-23T17:13:14.201Z,56.18
2023-02-23T17:16:21.750Z,56.26
2023-02-23T17:19:26.788Z,56.35
2023-02-23T17:22:31.803Z,56.43
2023-02-23T17:25:36.020Z,56.50
2023-02-23T17:28:41.222Z,56.54
2023-02-23T17:31:47.492Z,56.49
2023-02-23T17:34:56.303Z,56.42
2023-02-23T17:38:01.875Z,56.42
2023-02-23T17:41:06.251Z,56.62
2023-02-23T17:44:12.632Z,57.11
2023-02-23T17:47:17.026Z,57.39
2023-02-23T17:50:21.745Z,57.41
2023-02-23T17:53:26.762Z,57.52
2023-02-23T17:56:32.355Z,57.77
2023-02-23T17:59:37.753Z,57.91
2023-02-23T18:02:37.250Z,57.83
2023-02-23T18:05:43.446Z,57.83
2023-02-23T18:08:50.402Z,58.04
2023-02-23T18:11:54.733Z,58.20
2023-02-23T18:15:00.531Z,58.19
2023-02-23T18:18:05.283Z,58.20
2023-02-23T18:21:14.027Z,58.09
2023-02-23T18:24:20.529Z,58.33
2023-02-23T18:27:24.813Z,58.27
2023-02-23T18:30:30.215Z,57.93
2023-02-23T18:33:34.428Z,57.69
2023-02-23T18:36:43.015Z,57.51
2023-02-23T18:39:47.654Z,57.74
2023-02-23T18:42:52.287Z,57.90
2023-02-23T18:45:57.343Z,58.27
2023-02-23T18:49:04.092Z,58.31
2023-02-23T18:52:09.058Z,58.34
2023-02-23T18:55:13.479Z,58.41
2023-02-23T18:58:19.693Z,58.10
2023-02-23T19:01:33.560Z,57.80
2023-02-23T19:04:38.228Z,57.69
2023-02-23T19:07:43.502Z,58.33
2023-02-23T19:10:47.542Z,58.69
2023-02-23T19:13:45.239Z,59.21
2023-02-23T19:16:49.702Z,59.46
2023-02-23T19:19:53.961Z,59.58
2023-02-23T19:22:58.246Z,59.83
2023-02-23T19:26:04.516Z,60.20
2023-02-23T19:29:11.938Z,60.63
2023-02-23T19:32:18.104Z,60.79
2023-02-23T19:35:24.346Z,60.83
2023-02-23T19:38:27.576Z,60.97
2023-02-23T19:41:33.397Z,61.43
2023-02-23T19:44:37.770Z,61.67
2023-02-23T19:47:42.135Z,61.90
2023-02-23T19:50:46.551Z,61.91
2023-02-23T19:53:51.895Z,61.93
2023-02-23T19:56:57.828Z,61.91
2023-02-23T20:00:01.850Z,61.81
2023-02-23T20:03:08.527Z,62.14
2023-02-23T20:06:12.089Z,62.30
2023-02-23T20:09:18.610Z,62.44
2023-02-23T20:12:22.957Z,63.00
2023-02-23T20:15:27.650Z,63.14
2023-02-23T20:18:35.511Z,63.27
2023-02-23T20:21:41.572Z,63.25
2023-02-23T20:24:46.442Z,63.34
2023-02-23T20:27:51.165Z,63.31
2023-02-23T20:31:00.670Z,63.10
2023-02-23T20:34:06.947Z,63.05
2023-02-23T20:37:11.145Z,62.90
2023-02-23T20:40:23.228Z,62.90
2023-02-23T20:43:27.806Z,63.05
2023-02-23T20:46:24.610Z,63.11
2023-02-23T20:49:29.554Z,62.81
2023-02-23T20:52:33.918Z,62.36
2023-02-23T20:55:38.385Z,62.20
2023-02-23T20:58:42.509Z,62.06
2023-02-23T21:01:46.344Z,61.70
2023-02-23T21:04:51.146Z,61.46
2023-02-23T21:07:56.624Z,61.19
2023-02-23T21:11:02.479Z,61.20
2023-02-23T21:14:06.620Z,61.38
2023-02-23T21:17:06.451Z,61.51
2023-02-23T21:20:03.870Z,61.86
2023-02-23T21:23:11.389Z,62.17
2023-02-23T21:26:23.559Z,62.36
2023-02-23T21:29:29.765Z,62.37
2023-02-23T21:32:37.514Z,62.39
2023-02-23T21:35:44.637Z,62.52
2023-02-23T21:38:48.745Z,62.74
2023-02-23T21:41:53.858Z,62.75
2023-02-23T21:44:57.887Z,62.65
2023-02-23T21:48:04.056Z,62.55
2023-02-23T21:51:09.557Z,62.59
2023-02-23T21:54:14.184Z,62.99
2023-02-23T21:57:18.487Z,63.06
2023-02-23T22:00:25.312Z,63.21
2023-02-23T22:03:30.273Z,63.43
2023-02-23T22:06:34.266Z,63.74
2023-02-23T22:09:32.492Z,63.79
2023-02-23T22:12:38.962Z,63.48
2023-02-23T22:15:44.682Z,63.21
2023-02-23T22:18:49.764Z,63.49
2023-02-23T22:21:54.894Z,63.40
2023-02-23T22:24:55.982Z,63.23
2023-02-23T22:27:50.416Z,63.17
2023-02-23T22:30:57.995Z,63.08
2023-02-23T22:34:02.668Z,63.39
2023-02-23T22:37:07.122Z,63.74
2023-02-23T22:40:14.018Z,63.53
2023-02-23T22:43:19.106Z,63.03
2023-02-23T22:46:24.863Z,62.75
2023-02-23T22:49:29.853Z,62.86
2023-02-23T22:52:36.314Z,63.01
2023-02-23T22:55:43.513Z,63.87
2023-02-23T22:58:48.414Z,63.78
2023-02-23T23:01:54.106Z,63.65
2023-02-23T23:05:01.156Z,63.86
2023-02-23T23:08:04.949Z,64.09
2023-02-23T23:11:11.356Z,64.54
2023-02-23T23:14:16.980Z,64.78
2023-02-23T23:17:21.396Z,64.85
2023-02-23T23:20:26.049Z,65.32
2023-02-23T23:23:32.408Z,64.99
2023-02-23T23:26:38.884Z,64.96
2023-02-23T23:29:45.361Z,64.93
2023-02-23T23:32:50.088Z,65.01
2023-02-23T23:35:55.793Z,65.46
2023-02-23T23:39:01.763Z,65.86
2023-02-23T23:42:08.370Z,66.00
2023-02-23T23:45:15.323Z,65.83
2023-02-23T23:48:20.314Z,65.76
2023-02-23T23:51:24.905Z,66.10
2023-02-23T23:54:31.473Z,66.21
2023-02-23T23:57:36.645Z,66.11
